sensor_id;sensor_type;location;lat;lon;timestamp;temperature;humidity
72646;DHT22;60687;53.876;10.674;2022-12-29T00:09:17;7.90;99.90
72646;DHT22;60687;53.876;10.674;2022-12-29T00:19:22;7.90;99.90
72646;DHT22;60687;53.876;10.674;2022-12-29T00:29:47;8.00;99.90
72646;DHT22;60687;53.876;10.674;2022-12-29T00:40:11;8.00;99.90
72646;DHT22;60687;53.876;10.674;2022-12-29T00:50:33;8.10;99.90
72646;DHT22;60687;53.876;10.674;2022-12-29T01:00:45;8.10;99.90
72646;DHT22;60687;53.876;10.674;2022-12-29T01:10:57;8.20;99.90
72646;DHT22;60687;53.876;10.674;2022-12-29T01:21:06;8.30;99.90
72646;DHT22;60687;53.876;10.674;2022-12-29T01:31:25;8.40;99.90
72646;DHT22;60687;53.876;10.674;2022-12-29T01:41:41;8.40;99.90
72646;DHT22;60687;53.876;10.674;2022-12-29T01:52:06;8.40;99.90
72646;DHT22;60687;53.876;10.674;2022-12-29T02:13:06;8.50;99.90
72646;DHT22;60687;53.876;10.674;2022-12-29T02:33:56;8.60;99.90
72646;DHT22;60687;53.876;10.674;2022-12-29T02:44:07;8.70;99.90
72646;DHT22;60687;53.876;10.674;2022-12-29T02:54:18;8.70;99.90
72646;DHT22;60687;53.876;10.674;2022-12-29T03:04:47;8.70;99.90
72646;DHT22;60687;53.876;10.674;2022-12-29T03:14:59;8.80;99.90
72646;DHT22;60687;53.876;10.674;2022-12-29T03:25:23;8.80;99.90
72646;DHT22;60687;53.876;10.674;2022-12-29T03:35:29;8.90;99.90
72646;DHT22;60687;53.876;10.674;2022-12-29T03:45:39;8.90;99.90
72646;DHT22;60687;53.876;10.674;2022-12-29T03:55:42;9.00;99.90
72646;DHT22;60687;53.876;10.674;2022-12-29T04:05:44;9.10;99.90
72646;DHT22;60687;53.876;10.674;2022-12-29T04:15:47;9.10;99.90
72646;DHT22;60687;53.876;10.674;2022-12-29T04:25:50;9.20;99.90
72646;DHT22;60687;53.876;10.674;2022-12-29T04:35:54;9.20;99.90
72646;DHT22;60687;53.876;10.674;2022-12-29T04:45:56;9.30;99.90
72646;DHT22;60687;53.876;10.674;2022-12-29T04:55:59;9.40;99.90
72646;DHT22;60687;53.876;10.674;2022-12-29T05:06:01;9.40;99.90
72646;DHT22;60687;53.876;10.674;2022-12-29T05:16:05;9.40;99.60
72646;DHT22;60687;53.876;10.674;2022-12-29T05:26:07;9.50;99.50
72646;DHT22;60687;53.876;10.674;2022-12-29T05:36:15;9.50;99.40
72646;DHT22;60687;53.876;10.674;2022-12-29T05:46:17;9.50;99.60
72646;DHT22;60687;53.876;10.674;2022-12-29T05:56:20;9.50;99.90
72646;DHT22;60687;53.876;10.674;2022-12-29T06:06:22;9.50;99.90
72646;DHT22;60687;53.876;10.674;2022-12-29T06:16:26;9.40;99.90
72646;DHT22;60687;53.876;10.674;2022-12-29T06:26:28;9.50;99.90
72646;DHT22;60687;53.876;10.674;2022-12-29T06:36:34;9.50;99.90
72646;DHT22;60687;53.876;10.674;2022-12-29T06:46:36;9.60;99.90
72646;DHT22;60687;53.876;10.674;2022-12-29T06:56:40;9.60;99.90
72646;DHT22;60687;53.876;10.674;2022-12-29T07:06:43;9.70;99.90
72646;DHT22;60687;53.876;10.674;2022-12-29T07:16:46;9.70;99.90
72646;DHT22;60687;53.876;10.674;2022-12-29T07:26:49;9.70;99.90
72646;DHT22;60687;53.876;10.674;2022-12-29T07:36:53;9.70;99.90
72646;DHT22;60687;53.876;10.674;2022-12-29T07:46:56;9.70;99.80
72646;DHT22;60687;53.876;10.674;2022-12-29T08:07:56;9.70;99.60
72646;DHT22;60687;53.876;10.674;2022-12-29T08:18:00;9.70;99.70
72646;DHT22;60687;53.876;10.674;2022-12-29T08:28:02;9.70;99.90
72646;DHT22;60687;53.876;10.674;2022-12-29T08:38:06;9.70;99.90
72646;DHT22;60687;53.876;10.674;2022-12-29T08:48:08;9.70;99.90
72646;DHT22;60687;53.876;10.674;2022-12-29T08:58:15;9.70;99.90
72646;DHT22;60687;53.876;10.674;2022-12-29T09:08:19;9.70;99.90
72646;DHT22;60687;53.876;10.674;2022-12-29T09:18:23;9.70;99.70
72646;DHT22;60687;53.876;10.674;2022-12-29T09:28:26;9.80;99.10
72646;DHT22;60687;53.876;10.674;2022-12-29T09:38:31;9.90;98.70
72646;DHT22;60687;53.876;10.674;2022-12-29T09:49:01;9.90;98.70
72646;DHT22;60687;53.876;10.674;2022-12-29T09:59:16;10.00;98.60
72646;DHT22;60687;53.876;10.674;2022-12-29T10:09:29;10.00;98.20
72646;DHT22;60687;53.876;10.674;2022-12-29T10:19:47;10.10;97.30
72646;DHT22;60687;53.876;10.674;2022-12-29T10:29:55;10.10;96.40
72646;DHT22;60687;53.876;10.674;2022-12-29T10:40:01;10.30;95.00
72646;DHT22;60687;53.876;10.674;2022-12-29T10:50:05;10.30;94.70
72646;DHT22;60687;53.876;10.674;2022-12-29T11:00:13;10.30;94.40
72646;DHT22;60687;53.876;10.674;2022-12-29T11:10:28;10.40;92.90
72646;DHT22;60687;53.876;10.674;2022-12-29T11:20:34;10.40;92.20
72646;DHT22;60687;53.876;10.674;2022-12-29T11:30:38;10.50;91.40
72646;DHT22;60687;53.876;10.674;2022-12-29T11:40:43;10.60;91.30
72646;DHT22;60687;53.876;10.674;2022-12-29T11:50:50;10.70;91.10
72646;DHT22;60687;53.876;10.674;2022-12-29T12:00:55;10.70;89.90
72646;DHT22;60687;53.876;10.674;2022-12-29T12:11:06;10.60;89.80
72646;DHT22;60687;53.876;10.674;2022-12-29T12:21:16;10.60;90.10
72646;DHT22;60687;53.876;10.674;2022-12-29T12:31:27;10.60;88.60
72646;DHT22;60687;53.876;10.674;2022-12-29T12:41:44;10.60;87.50
72646;DHT22;60687;53.876;10.674;2022-12-29T12:51:57;10.50;87.00
72646;DHT22;60687;53.876;10.674;2022-12-29T13:02:15;10.50;87.60
72646;DHT22;60687;53.876;10.674;2022-12-29T13:12:30;10.50;87.00
72646;DHT22;60687;53.876;10.674;2022-12-29T13:22:38;10.50;88.40
72646;DHT22;60687;53.876;10.674;2022-12-29T13:32:56;10.50;88.30
72646;DHT22;60687;53.876;10.674;2022-12-29T13:43:02;10.50;88.10
72646;DHT22;60687;53.876;10.674;2022-12-29T13:53:15;10.40;89.90
72646;DHT22;60687;53.876;10.674;2022-12-29T14:03:47;10.40;90.10
72646;DHT22;60687;53.876;10.674;2022-12-29T14:13:52;10.40;89.00
72646;DHT22;60687;53.876;10.674;2022-12-29T14:24:26;10.30;90.00
72646;DHT22;60687;53.876;10.674;2022-12-29T14:34:33;10.20;90.50
72646;DHT22;60687;53.876;10.674;2022-12-29T14:44:50;10.10;91.40
72646;DHT22;60687;53.876;10.674;2022-12-29T14:54:54;10.00;92.70
72646;DHT22;60687;53.876;10.674;2022-12-29T15:05:00;9.80;94.00
72646;DHT22;60687;53.876;10.674;2022-12-29T15:15:17;9.70;93.70
72646;DHT22;60687;53.876;10.674;2022-12-29T15:25:20;9.60;93.60
72646;DHT22;60687;53.876;10.674;2022-12-29T15:35:29;9.50;93.90
72646;DHT22;60687;53.876;10.674;2022-12-29T15:45:33;9.50;93.90
72646;DHT22;60687;53.876;10.674;2022-12-29T15:55:38;9.30;93.80
72646;DHT22;60687;53.876;10.674;2022-12-29T16:05:50;9.20;93.80
72646;DHT22;60687;53.876;10.674;2022-12-29T16:16:02;9.10;94.30
72646;DHT22;60687;53.876;10.674;2022-12-29T16:26:14;9.00;94.10
72646;DHT22;60687;53.876;10.674;2022-12-29T16:36:39;8.90;93.90
72646;DHT22;60687;53.876;10.674;2022-12-29T16:46:55;8.80;93.70
72646;DHT22;60687;53.876;10.674;2022-12-29T16:56:59;8.70;93.90
72646;DHT22;60687;53.876;10.674;2022-12-29T17:07:04;8.70;94.20
72646;DHT22;60687;53.876;10.674;2022-12-29T17:17:14;8.60;94.20
72646;DHT22;60687;53.876;10.674;2022-12-29T17:27:25;8.50;94.20
72646;DHT22;60687;53.876;10.674;2022-12-29T17:37:33;8.50;94.50
72646;DHT22;60687;53.876;10.674;2022-12-29T17:47:37;8.40;94.60
72646;DHT22;60687;53.876;10.674;2022-12-29T17:57:39;8.40;94.70
72646;DHT22;60687;53.876;10.674;2022-12-29T18:07:44;8.30;94.80
72646;DHT22;60687;53.876;10.674;2022-12-29T18:17:48;8.30;94.80
72646;DHT22;60687;53.876;10.674;2022-12-29T18:27:54;8.20;94.90
72646;DHT22;60687;53.876;10.674;2022-12-29T18:37:56;8.20;94.90
72646;DHT22;60687;53.876;10.674;2022-12-29T18:48:01;8.10;94.90
72646;DHT22;60687;53.876;10.674;2022-12-29T18:58:04;8.10;95.10
72646;DHT22;60687;53.876;10.674;2022-12-29T19:08:09;8.20;95.20
72646;DHT22;60687;53.876;10.674;2022-12-29T19:18:15;8.20;95.20
72646;DHT22;60687;53.876;10.674;2022-12-29T19:28:21;8.20;95.00
72646;DHT22;60687;53.876;10.674;2022-12-29T19:38:24;8.30;94.80
72646;DHT22;60687;53.876;10.674;2022-12-29T19:48:27;8.30;94.90
72646;DHT22;60687;53.876;10.674;2022-12-29T19:58:32;8.20;95.00
72646;DHT22;60687;53.876;10.674;2022-12-29T20:08:37;8.20;95.00
72646;DHT22;60687;53.876;10.674;2022-12-29T20:18:39;8.20;95.50
72646;DHT22;60687;53.876;10.674;2022-12-29T20:28:43;8.20;96.40
72646;DHT22;60687;53.876;10.674;2022-12-29T20:38:52;8.10;97.10
72646;DHT22;60687;53.876;10.674;2022-12-29T20:49:10;8.10;97.00
72646;DHT22;60687;53.876;10.674;2022-12-29T20:59:12;7.60;96.80
72646;DHT22;60687;53.876;10.674;2022-12-29T21:09:15;7.50;97.20
72646;DHT22;60687;53.876;10.674;2022-12-29T21:19:18;7.40;97.40
72646;DHT22;60687;53.876;10.674;2022-12-29T21:29:36;7.40;97.50
72646;DHT22;60687;53.876;10.674;2022-12-29T21:39:59;7.30;97.70
72646;DHT22;60687;53.876;10.674;2022-12-29T21:50:16;7.30;98.10
72646;DHT22;60687;53.876;10.674;2022-12-29T22:00:36;7.40;98.50
72646;DHT22;60687;53.876;10.674;2022-12-29T22:10:56;7.40;98.50
72646;DHT22;60687;53.876;10.674;2022-12-29T22:21:16;7.40;98.30
72646;DHT22;60687;53.876;10.674;2022-12-29T22:31:22;7.40;97.90
72646;DHT22;60687;53.876;10.674;2022-12-29T22:41:26;7.40;97.30
72646;DHT22;60687;53.876;10.674;2022-12-29T22:51:30;7.40;97.10
72646;DHT22;60687;53.876;10.674;2022-12-29T23:01:32;7.30;96.10
72646;DHT22;60687;53.876;10.674;2022-12-29T23:11:35;7.30;96.00
72646;DHT22;60687;53.876;10.674;2022-12-29T23:21:37;7.20;96.10
72646;DHT22;60687;53.876;10.674;2022-12-29T23:31:40;7.20;96.20
72646;DHT22;60687;53.876;10.674;2022-12-29T23:41:42;7.10;96.00
72646;DHT22;60687;53.876;10.674;2022-12-29T23:51:46;7.10;96.30
